Terminal Aerodrome Forecast
Issued by NWS

Home | Current Version | Previous Version | Text Only | Print | Product List | Glossary On
Versions: 1 2 3 4 5 6 7 8 9 10 11 12 13 14 15 16 17 18 19 20 21 22 23 24
000
FTUS41 KPBZ 050416 AAA
TAFDUJ
TAF AMD
KDUJ 050416Z 0504/0524 14008G16KT 3SM -SN OVC025
      TEMPO 0504/0507 1 1/2SM -SN OVC015
     FM050700 17006KT 5SM -RASN OVC008
     FM050900 25008KT P6SM BKN006
     FM051700 24009KT P6SM BKN015=

USA.gov is the U.S. government's official web portal to all federal, state and local government web resources and services.